createdAt,value
2022-09-20T00:01:21.925Z,4.80
2022-09-20T00:03:54.950Z,4.80
2022-09-20T00:06:29.976Z,4.80
2022-09-20T00:08:57.826Z,4.90
2022-09-20T00:11:27.074Z,5.00
2022-09-20T00:13:56.412Z,5.10
2022-09-20T00:16:31.289Z,5.20
2022-09-20T00:19:04.029Z,5.20
2022-09-20T00:21:32.736Z,5.20
2022-09-20T00:24:00.242Z,5.30
2022-09-20T00:26:28.250Z,5.30
2022-09-20T00:28:55.370Z,5.30
2022-09-20T00:31:22.289Z,5.30
2022-09-20T00:34:07.977Z,5.30
2022-09-20T00:36:34.937Z,5.30
2022-09-20T00:39:03.173Z,5.30
2022-09-20T00:41:31.560Z,5.20
2022-09-20T00:43:59.233Z,5.10
2022-09-20T00:46:33.739Z,5.00
2022-09-20T00:49:18.663Z,5.00
2022-09-20T00:51:49.697Z,4.90
2022-09-20T00:54:20.483Z,4.90
2022-09-20T00:56:48.984Z,4.90
2022-09-20T00:59:25.492Z,4.90
2022-09-20T01:02:06.646Z,4.80
2022-09-20T01:04:36.044Z,4.80
2022-09-20T01:07:05.192Z,4.80
2022-09-20T01:09:32.268Z,4.80
2022-09-20T01:12:06.161Z,4.80
2022-09-20T01:14:34.279Z,4.80
2022-09-20T01:17:02.787Z,4.80
2022-09-20T01:19:57.288Z,4.80
2022-09-20T01:22:33.963Z,4.90
2022-09-20T01:25:15.024Z,4.90
2022-09-20T01:27:48.946Z,5.00
2022-09-20T01:30:24.991Z,5.00
2022-09-20T01:33:01.688Z,5.00
2022-09-20T01:35:30.419Z,5.00
2022-09-20T01:38:27.512Z,5.00
2022-09-20T01:41:18.953Z,5.00
2022-09-20T01:43:53.746Z,5.00
2022-09-20T01:46:33.666Z,5.00
2022-09-20T01:49:31.466Z,5.00
2022-09-20T01:52:04.513Z,5.00
2022-09-20T01:55:00.667Z,5.00
2022-09-20T01:57:41.856Z,5.00
2022-09-20T02:00:24.024Z,5.00
2022-09-20T02:02:57.008Z,5.00
2022-09-20T02:05:45.129Z,5.00
2022-09-20T02:08:28.368Z,4.90
2022-09-20T02:11:06.903Z,4.90
2022-09-20T02:14:14.722Z,4.80
2022-09-20T02:16:57.575Z,4.80
2022-09-20T02:19:44.524Z,4.70
2022-09-20T02:22:36.146Z,4.60
2022-09-20T02:25:28.856Z,4.60
2022-09-20T02:28:13.711Z,4.50
2022-09-20T02:31:09.731Z,4.40
2022-09-20T02:33:51.976Z,4.30
2022-09-20T02:36:54.409Z,4.30
2022-09-20T02:39:36.544Z,4.20
2022-09-20T02:42:18.906Z,4.20
2022-09-20T02:45:09.397Z,4.10
2022-09-20T02:47:42.640Z,4.00
2022-09-20T02:50:28.139Z,4.00
2022-09-20T02:53:35.813Z,4.00
2022-09-20T02:56:08.390Z,3.90
2022-09-20T02:59:16.804Z,3.80
2022-09-20T03:02:13.476Z,3.70
2022-09-20T03:05:03.752Z,3.70
2022-09-20T03:08:06.137Z,3.70
2022-09-20T03:11:03.526Z,3.60
2022-09-20T03:13:46.876Z,3.60
2022-09-20T03:16:52.247Z,3.50
2022-09-20T03:19:37.565Z,3.40
2022-09-20T03:22:30.026Z,3.30
2022-09-20T03:25:07.320Z,3.30
2022-09-20T03:27:40.175Z,3.30
2022-09-20T03:30:41.766Z,3.30
2022-09-20T03:33:16.928Z,3.30
2022-09-20T03:35:56.404Z,3.20
2022-09-20T03:38:53.043Z,3.20
2022-09-20T03:41:50.094Z,3.20
2022-09-20T03:44:32.320Z,3.10
2022-09-20T03:47:25.956Z,3.10
2022-09-20T03:50:12.041Z,3.00
2022-09-20T03:52:59.981Z,3.00
2022-09-20T03:55:35.529Z,3.00
2022-09-20T03:58:17.410Z,2.90
2022-09-20T04:00:59.488Z,2.90
2022-09-20T04:03:55.596Z,2.90
2022-09-20T04:06:45.226Z,2.90
2022-09-20T04:09:47.680Z,2.90
2022-09-20T04:12:24.321Z,2.90
2022-09-20T04:15:14.735Z,2.80
2022-09-20T04:18:03.054Z,2.80
2022-09-20T04:20:58.832Z,2.90
2022-09-20T04:23:40.819Z,2.90
2022-09-20T04:26:08.140Z,2.90
2022-09-20T04:28:41.969Z,2.90
2022-09-20T04:31:43.586Z,2.80
2022-09-20T04:34:21.811Z,2.90
2022-09-20T04:37:05.045Z,2.90
2022-09-20T04:39:52.503Z,2.90
2022-09-20T04:42:36.061Z,2.90
2022-09-20T04:45:31.100Z,2.90
2022-09-20T04:48:26.560Z,2.90
2022-09-20T04:51:15.875Z,2.90
2022-09-20T04:53:54.734Z,3.00
2022-09-20T04:56:33.340Z,3.00
2022-09-20T04:59:15.286Z,3.10
2022-09-20T05:02:12.401Z,3.00
2022-09-20T05:05:08.384Z,3.00
2022-09-20T05:07:41.194Z,3.10
2022-09-20T05:10:55.941Z,3.10
2022-09-20T05:13:41.325Z,3.10
2022-09-20T05:16:58.103Z,3.10
2022-09-20T05:19:39.786Z,3.10
2022-09-20T05:22:33.981Z,3.10
2022-09-20T05:25:11.159Z,3.00
2022-09-20T05:27:57.011Z,3.00
2022-09-20T05:31:00.602Z,3.00
2022-09-20T05:33:54.891Z,3.00
2022-09-20T05:36:52.924Z,3.00
2022-09-20T05:39:45.875Z,3.00
2022-09-20T05:42:42.174Z,3.00
2022-09-20T05:45:36.733Z,3.00
2022-09-20T05:48:32.157Z,2.90
2022-09-20T05:51:08.657Z,2.90
2022-09-20T05:54:31.806Z,3.00
2022-09-20T05:57:32.444Z,3.00
2022-09-20T06:00:07.805Z,3.00
2022-09-20T06:02:48.204Z,3.10
2022-09-20T06:05:27.074Z,3.20
2022-09-20T06:08:15.690Z,3.20
2022-09-20T06:11:05.537Z,3.20
2022-09-20T06:14:03.860Z,3.30
2022-09-20T06:16:36.854Z,3.30
2022-09-20T06:19:19.238Z,3.30
2022-09-20T06:21:51.931Z,3.40
2022-09-20T06:24:53.223Z,3.50
2022-09-20T06:27:34.828Z,3.70
2022-09-20T06:30:06.190Z,4.00
2022-09-20T06:32:34.783Z,4.30
2022-09-20T06:35:03.031Z,4.50
2022-09-20T06:38:03.245Z,4.60
2022-09-20T06:41:05.620Z,4.70
2022-09-20T06:43:32.662Z,4.80
2022-09-20T06:45:59.618Z,4.90
2022-09-20T06:48:27.195Z,4.80
2022-09-20T06:50:54.035Z,4.90
2022-09-20T06:53:29.421Z,4.90
2022-09-20T06:55:57.531Z,4.90
2022-09-20T06:58:24.261Z,4.90
2022-09-20T07:00:51.157Z,5.00
2022-09-20T07:03:19.608Z,5.00
2022-09-20T07:05:47.172Z,5.10
2022-09-20T07:08:14.426Z,5.10
2022-09-20T07:10:41.532Z,5.10
2022-09-20T07:13:12.531Z,5.20
2022-09-20T07:15:39.601Z,5.30
2022-09-20T07:18:07.788Z,5.30
2022-09-20T07:20:34.993Z,5.30
2022-09-20T07:23:02.664Z,5.40
2022-09-20T07:25:31.348Z,5.60
2022-09-20T07:27:58.275Z,5.80
2022-09-20T07:30:25.281Z,6.00
2022-09-20T07:32:52.477Z,6.20
2022-09-20T07:35:19.338Z,6.40
2022-09-20T07:37:46.990Z,6.50
2022-09-20T07:40:15.002Z,6.70
2022-09-20T07:42:42.047Z,6.70
2022-09-20T07:45:09.404Z,6.70
2022-09-20T07:47:36.506Z,6.80
2022-09-20T07:50:04.482Z,6.90
2022-09-20T07:52:31.502Z,6.90
2022-09-20T07:54:58.458Z,7.00
2022-09-20T07:57:25.464Z,7.10
2022-09-20T07:59:52.342Z,7.20
2022-09-20T08:02:19.229Z,7.30
2022-09-20T08:04:49.890Z,7.50
2022-09-20T08:07:16.841Z,7.60
2022-09-20T08:09:43.782Z,7.70
2022-09-20T08:14:57.530Z,7.90
2022-09-20T08:17:24.447Z,8.10
2022-09-20T08:19:52.931Z,8.30
2022-09-20T08:22:20.308Z,8.50
2022-09-20T08:24:47.207Z,8.70
2022-09-20T08:27:14.127Z,8.70
2022-09-20T08:29:41.061Z,8.80
2022-09-20T08:32:07.903Z,8.90
2022-09-20T08:34:34.885Z,9.00
2022-09-20T08:37:01.788Z,9.10
2022-09-20T08:42:33.610Z,9.30
2022-09-20T08:45:06.108Z,9.30
2022-09-20T08:47:36.659Z,9.40
2022-09-20T08:50:09.525Z,9.50
2022-09-20T08:52:40.216Z,9.60
2022-09-20T08:55:39.718Z,9.70
2022-09-20T08:58:11.283Z,9.90
2022-09-20T09:00:40.880Z,10.00
2022-09-20T09:03:12.882Z,10.10
2022-09-20T09:05:50.631Z,10.20
2022-09-20T09:08:28.274Z,10.30
2022-09-20T09:11:08.550Z,10.40
2022-09-20T09:13:38.326Z,10.60
2022-09-20T09:16:33.616Z,10.70
2022-09-20T09:19:34.617Z,10.80
2022-09-20T09:22:03.940Z,10.80
2022-09-20T09:24:32.244Z,11.00
2022-09-20T09:27:06.797Z,11.10
2022-09-20T09:29:34.956Z,11.20
2022-09-20T09:32:29.552Z,11.30
2022-09-20T09:35:09.253Z,11.40
2022-09-20T09:37:36.179Z,11.50
2022-09-20T09:40:21.602Z,11.60
2022-09-20T09:42:56.321Z,11.80
2022-09-20T09:45:31.526Z,11.90
2022-09-20T09:48:01.454Z,12.00
2022-09-20T09:50:31.680Z,12.10
2022-09-20T09:53:09.559Z,12.20
2022-09-20T09:55:52.855Z,12.20
2022-09-20T09:58:28.120Z,12.20
2022-09-20T10:00:57.588Z,12.10
2022-09-20T10:03:44.075Z,12.10
2022-09-20T10:06:56.075Z,12.20
2022-09-20T10:09:44.913Z,12.40
2022-09-20T10:12:22.323Z,12.50
2022-09-20T10:15:02.009Z,12.60
2022-09-20T10:17:37.725Z,12.70
2022-09-20T10:20:28.194Z,12.90
2022-09-20T10:26:16.241Z,13.20
2022-09-20T10:28:55.241Z,13.30
2022-09-20T10:31:36.027Z,13.30
2022-09-20T10:34:11.954Z,13.30
2022-09-20T10:36:46.009Z,13.30
2022-09-20T10:39:38.500Z,13.50
2022-09-20T10:42:59.313Z,13.60
2022-09-20T10:46:08.768Z,13.80
2022-09-20T10:48:58.954Z,13.90
2022-09-20T10:51:41.807Z,13.80
2022-09-20T10:54:14.136Z,13.60
2022-09-20T10:56:47.254Z,13.70
2022-09-20T10:59:35.290Z,13.80
2022-09-20T11:02:26.260Z,13.90
2022-09-20T11:05:05.304Z,14.00
2022-09-20T11:07:56.842Z,14.20
2022-09-20T11:10:58.501Z,14.20
2022-09-20T11:13:51.155Z,14.40
2022-09-20T11:16:41.808Z,14.50
2022-09-20T11:19:19.274Z,14.50
2022-09-20T11:22:02.974Z,14.60
2022-09-20T11:24:48.020Z,14.70
2022-09-20T11:27:20.949Z,14.90
2022-09-20T11:30:07.383Z,15.00
2022-09-20T11:32:53.827Z,15.00
2022-09-20T11:35:32.776Z,14.90
2022-09-20T11:38:17.408Z,15.00
2022-09-20T11:40:54.679Z,15.00
2022-09-20T11:43:25.347Z,15.10
2022-09-20T11:45:56.924Z,15.00
2022-09-20T11:48:33.984Z,14.90
2022-09-20T11:51:04.195Z,14.80
2022-09-20T11:53:39.069Z,14.70
2022-09-20T11:56:20.394Z,14.60
2022-09-20T11:58:49.319Z,14.70
2022-09-20T12:01:33.399Z,14.80
2022-09-20T12:04:31.371Z,14.80
2022-09-20T12:07:17.968Z,14.90
2022-09-20T12:09:59.069Z,14.80
2022-09-20T12:12:44.082Z,14.70
2022-09-20T12:15:27.064Z,14.80
2022-09-20T12:17:56.823Z,14.90
2022-09-20T12:20:32.832Z,15.00
2022-09-20T12:23:40.879Z,15.10
2022-09-20T12:26:23.051Z,15.20
2022-09-20T12:28:55.392Z,15.10
2022-09-20T12:31:22.677Z,15.10
2022-09-20T12:34:01.430Z,15.10
2022-09-20T12:36:36.850Z,15.20
2022-09-20T12:39:21.833Z,15.30
2022-09-20T12:41:52.986Z,15.40
2022-09-20T12:44:28.625Z,15.50
2022-09-20T12:47:10.555Z,15.50
2022-09-20T12:49:58.315Z,15.60
2022-09-20T12:52:46.671Z,15.60
2022-09-20T12:55:30.158Z,15.60
2022-09-20T12:58:14.255Z,15.60
2022-09-20T13:00:59.250Z,15.70
2022-09-20T13:03:47.007Z,15.80
2022-09-20T13:06:16.409Z,15.90
2022-09-20T13:08:43.388Z,16.00
2022-09-20T13:11:19.442Z,16.00
2022-09-20T13:13:50.409Z,16.10
2022-09-20T13:16:37.550Z,16.30
2022-09-20T13:19:32.340Z,16.40
2022-09-20T13:22:11.495Z,16.30
2022-09-20T13:24:45.151Z,16.30
2022-09-20T13:27:35.135Z,16.40
2022-09-20T13:30:29.811Z,16.40
2022-09-20T13:32:58.392Z,16.40
2022-09-20T13:35:29.455Z,16.50
2022-09-20T13:38:05.662Z,16.40
2022-09-20T13:40:49.800Z,16.40
2022-09-20T13:43:46.718Z,16.40
2022-09-20T13:46:17.090Z,16.20
2022-09-20T13:48:47.499Z,16.10
2022-09-20T13:51:34.778Z,15.90
2022-09-20T13:54:32.677Z,15.60
2022-09-20T13:57:03.300Z,15.50
2022-09-20T13:59:42.271Z,15.40
2022-09-20T14:02:27.841Z,15.40
2022-09-20T14:04:58.258Z,15.50
2022-09-20T14:07:28.054Z,15.60
2022-09-20T14:09:56.668Z,15.60
2022-09-20T14:12:25.439Z,15.60
2022-09-20T14:14:53.209Z,15.70
2022-09-20T14:17:24.370Z,15.60
2022-09-20T14:19:57.672Z,15.60
2022-09-20T14:22:27.891Z,15.50
2022-09-20T14:25:13.058Z,15.60
2022-09-20T14:27:40.799Z,15.70
2022-09-20T14:30:30.116Z,15.80
2022-09-20T14:32:59.010Z,15.90
2022-09-20T14:35:27.099Z,15.90
2022-09-20T14:37:59.371Z,15.90
2022-09-20T14:40:27.664Z,16.00
2022-09-20T14:43:03.491Z,16.10
2022-09-20T14:45:39.406Z,16.10
2022-09-20T14:48:12.110Z,16.10
2022-09-20T14:50:43.617Z,16.00
2022-09-20T14:53:13.305Z,15.90
2022-09-20T14:55:54.457Z,15.90
2022-09-20T14:58:21.583Z,15.80
2022-09-20T15:00:59.112Z,15.80
2022-09-20T15:03:33.189Z,15.80
2022-09-20T15:06:00.441Z,15.80
2022-09-20T15:08:27.648Z,15.70
2022-09-20T15:10:54.818Z,15.60
2022-09-20T15:13:21.810Z,15.50
2022-09-20T15:15:55.455Z,15.40
2022-09-20T15:18:27.715Z,15.50
2022-09-20T15:20:55.484Z,15.40
2022-09-20T15:23:22.779Z,15.50
2022-09-20T15:25:51.953Z,15.50
2022-09-20T15:28:19.453Z,15.50
2022-09-20T15:30:48.131Z,15.30
2022-09-20T15:33:15.227Z,15.30
2022-09-20T15:35:43.897Z,15.20
2022-09-20T15:38:11.947Z,15.20
2022-09-20T15:40:41.924Z,15.20
2022-09-20T15:43:12.133Z,15.20
2022-09-20T15:45:54.309Z,15.20
2022-09-20T15:48:28.003Z,15.20
2022-09-20T15:51:01.881Z,15.30
2022-09-20T15:53:31.770Z,15.30
2022-09-20T15:56:02.588Z,15.40
2022-09-20T15:58:35.408Z,15.40
2022-09-20T16:01:07.260Z,15.40
2022-09-20T16:03:35.937Z,15.30
2022-09-20T16:06:06.364Z,15.30
2022-09-20T16:08:35.258Z,15.30
2022-09-20T16:11:02.399Z,15.30
2022-09-20T16:13:29.979Z,15.20
2022-09-20T16:16:01.731Z,15.10
2022-09-20T16:18:48.078Z,15.10
2022-09-20T16:21:17.771Z,15.00
2022-09-20T16:23:52.017Z,15.00
2022-09-20T16:26:21.531Z,14.90
2022-09-20T16:28:49.251Z,14.90
2022-09-20T16:31:36.957Z,14.70
2022-09-20T16:34:36.726Z,14.60
2022-09-20T16:37:11.873Z,14.50
2022-09-20T16:39:40.875Z,14.40
2022-09-20T16:42:13.239Z,14.40
2022-09-20T16:44:42.699Z,14.40
2022-09-20T16:47:23.081Z,14.40
2022-09-20T16:49:51.590Z,14.30
2022-09-20T16:52:18.684Z,14.30
2022-09-20T16:54:46.665Z,14.10
2022-09-20T16:57:15.487Z,14.10
2022-09-20T16:59:42.747Z,14.00
2022-09-20T17:02:12.359Z,13.90
2022-09-20T17:04:39.329Z,13.80
2022-09-20T17:07:06.681Z,13.80
2022-09-20T17:09:33.694Z,13.70
2022-09-20T17:12:01.305Z,13.60
2022-09-20T17:14:28.129Z,13.50
2022-09-20T17:16:56.817Z,13.40
2022-09-20T17:19:23.655Z,13.30
2022-09-20T17:21:51.358Z,13.10
2022-09-20T17:24:20.656Z,13.00
2022-09-20T17:26:48.824Z,13.00
2022-09-20T17:29:17.048Z,12.90
2022-09-20T17:31:58.860Z,12.80
2022-09-20T17:34:28.000Z,12.70
2022-09-20T17:36:55.342Z,12.60
2022-09-20T17:39:22.942Z,12.40
2022-09-20T17:41:50.739Z,12.20
2022-09-20T17:44:17.963Z,12.00
2022-09-20T17:46:47.910Z,11.80
2022-09-20T17:49:16.972Z,11.60
2022-09-20T17:51:55.448Z,11.50
2022-09-20T17:54:24.446Z,11.40
2022-09-20T17:56:54.026Z,11.20
2022-09-20T17:59:21.245Z,11.20
2022-09-20T18:01:50.454Z,11.10
2022-09-20T18:04:18.275Z,11.10
2022-09-20T18:06:47.651Z,11.10
2022-09-20T18:09:17.659Z,11.00
2022-09-20T18:11:49.055Z,10.90
2022-09-20T18:14:17.936Z,10.90
2022-09-20T18:16:45.030Z,10.90
2022-09-20T18:19:12.230Z,10.70
2022-09-20T18:21:40.851Z,10.60
2022-09-20T18:24:17.851Z,10.50
2022-09-20T18:26:47.084Z,10.30
2022-09-20T18:29:17.954Z,10.20
2022-09-20T18:31:50.655Z,10.10
2022-09-20T18:34:21.760Z,10.00
2022-09-20T18:36:55.125Z,9.80
2022-09-20T18:39:27.228Z,9.70
2022-09-20T18:41:54.849Z,9.60
2022-09-20T18:44:22.773Z,9.50
2022-09-20T18:46:52.385Z,9.40
2022-09-20T18:49:21.092Z,9.20
2022-09-20T18:51:48.938Z,9.10
2022-09-20T18:54:16.891Z,9.00
2022-09-20T18:56:48.883Z,9.00
2022-09-20T18:59:23.049Z,9.00
2022-09-20T19:02:30.282Z,8.80
2022-09-20T19:05:12.367Z,8.70
2022-09-20T19:08:01.963Z,8.70
2022-09-20T19:10:43.815Z,8.50
2022-09-20T19:13:10.680Z,8.40
2022-09-20T19:16:07.287Z,8.40
2022-09-20T19:19:16.019Z,8.30
2022-09-20T19:21:48.307Z,8.30
2022-09-20T19:24:36.853Z,8.20
2022-09-20T19:27:03.936Z,8.10
2022-09-20T19:29:31.187Z,8.10
2022-09-20T19:32:00.859Z,8.00
2022-09-20T19:34:32.054Z,7.90
2022-09-20T19:37:18.719Z,7.80
2022-09-20T19:40:04.177Z,7.70
2022-09-20T19:42:50.112Z,7.60
2022-09-20T19:45:19.722Z,7.50
2022-09-20T19:47:54.998Z,7.40
2022-09-20T19:50:36.093Z,7.30
2022-09-20T19:53:03.856Z,7.20
2022-09-20T19:55:35.765Z,7.10
2022-09-20T19:58:03.015Z,7.10
2022-09-20T20:00:31.440Z,7.10
2022-09-20T20:02:58.712Z,7.00
2022-09-20T20:05:27.589Z,6.90
2022-09-20T20:08:19.714Z,6.90
2022-09-20T20:11:06.831Z,6.90
2022-09-20T20:13:58.152Z,6.80
2022-09-20T20:16:52.343Z,6.80
2022-09-20T20:19:24.926Z,6.80
2022-09-20T20:22:06.978Z,6.70
2022-09-20T20:24:53.070Z,6.60
2022-09-20T20:27:20.704Z,6.50
2022-09-20T20:29:47.600Z,6.50
2022-09-20T20:32:15.170Z,6.40
2022-09-20T20:34:42.416Z,6.30
2022-09-20T20:37:09.663Z,6.30
2022-09-20T20:39:36.623Z,6.30
2022-09-20T20:42:06.258Z,6.20
2022-09-20T20:44:36.952Z,6.10
2022-09-20T20:47:05.879Z,6.00
2022-09-20T20:49:33.009Z,6.00
2022-09-20T20:52:05.101Z,6.00
2022-09-20T20:54:32.745Z,5.90
2022-09-20T20:56:59.869Z,5.90
2022-09-20T20:59:27.088Z,5.90
2022-09-20T21:01:53.985Z,5.90
2022-09-20T21:04:21.661Z,5.80
2022-09-20T21:06:49.592Z,5.80
2022-09-20T21:09:16.541Z,5.80
2022-09-20T21:11:44.377Z,5.60
2022-09-20T21:14:12.806Z,5.60
2022-09-20T21:16:43.392Z,5.70
2022-09-20T21:19:15.012Z,5.60
2022-09-20T21:21:43.952Z,5.60
2022-09-20T21:24:13.447Z,5.50
2022-09-20T21:26:41.150Z,5.50
2022-09-20T21:29:11.251Z,5.50
2022-09-20T21:31:41.306Z,5.40
2022-09-20T21:34:10.004Z,5.40
2022-09-20T21:36:38.241Z,5.30
2022-09-20T21:39:06.324Z,5.30
2022-09-20T21:41:38.739Z,5.20
2022-09-20T21:44:07.280Z,5.20
2022-09-20T21:46:41.159Z,5.20
2022-09-20T21:49:10.973Z,5.20
2022-09-20T21:51:39.522Z,5.10
2022-09-20T21:54:06.683Z,5.10
2022-09-20T21:56:35.930Z,5.10
2022-09-20T21:59:04.366Z,5.00
2022-09-20T22:01:34.969Z,5.00
2022-09-20T22:04:07.694Z,5.00
2022-09-20T22:06:37.237Z,5.00
2022-09-20T22:09:07.555Z,5.10
2022-09-20T22:11:46.183Z,5.10
2022-09-20T22:14:14.875Z,5.20
2022-09-20T22:16:44.681Z,5.20
2022-09-20T22:19:15.026Z,5.20
2022-09-20T22:21:44.768Z,5.10
2022-09-20T22:24:13.406Z,5.10
2022-09-20T22:26:43.118Z,5.00
2022-09-20T22:29:10.705Z,5.00
2022-09-20T22:31:44.720Z,5.00
2022-09-20T22:34:15.138Z,4.90
2022-09-20T22:36:42.859Z,5.00
2022-09-20T22:39:11.070Z,5.00
2022-09-20T22:41:39.398Z,5.00
2022-09-20T22:44:06.477Z,5.00
2022-09-20T22:46:34.814Z,5.00
2022-09-20T22:49:04.123Z,4.90
2022-09-20T22:51:33.341Z,4.80
2022-09-20T22:54:04.158Z,4.80
2022-09-20T22:56:31.429Z,4.70
2022-09-20T22:59:00.619Z,4.60
2022-09-20T23:01:29.716Z,4.60
2022-09-20T23:04:03.217Z,4.70
2022-09-20T23:06:33.449Z,4.60
2022-09-20T23:09:02.317Z,4.60
2022-09-20T23:11:29.680Z,4.60
2022-09-20T23:14:01.750Z,4.60
2022-09-20T23:16:30.993Z,4.60
2022-09-20T23:18:59.704Z,4.60
2022-09-20T23:21:27.337Z,4.50
2022-09-20T23:23:59.546Z,4.50
2022-09-20T23:26:29.729Z,4.50
2022-09-20T23:28:58.875Z,4.50
2022-09-20T23:31:27.525Z,4.40
2022-09-20T23:33:58.303Z,4.40
2022-09-20T23:36:27.205Z,4.40
2022-09-20T23:38:54.500Z,4.30
2022-09-20T23:41:22.922Z,4.20
2022-09-20T23:43:50.185Z,4.10
2022-09-20T23:46:19.175Z,4.00
2022-09-20T23:48:46.530Z,3.90
2022-09-20T23:51:16.002Z,3.90
2022-09-20T23:53:43.583Z,4.00
2022-09-20T23:56:11.804Z,3.90
2022-09-20T23:58:43.075Z,3.90
